createdAt,value
2018-04-29T00:00:11.944Z,75.90
2018-04-29T00:02:38.456Z,75.50
2018-04-29T00:05:05.027Z,75.20
2018-04-29T00:07:31.581Z,75.40
2018-04-29T00:09:58.090Z,75.50
2018-04-29T00:12:24.623Z,76.00
2018-04-29T00:14:51.171Z,75.80
2018-04-29T00:17:17.683Z,76.00
2018-04-29T00:19:44.255Z,75.50
2018-04-29T00:22:11.164Z,76.10
2018-04-29T00:24:37.676Z,76.20
2018-04-29T00:27:04.247Z,76.50
2018-04-29T00:29:30.832Z,76.20
2018-04-29T00:31:57.335Z,76.90
2018-04-29T00:34:23.871Z,76.30
2018-04-29T00:36:50.418Z,76.10
2018-04-29T00:39:16.951Z,76.20
2018-04-29T00:41:43.504Z,76.60
2018-04-29T00:44:10.078Z,76.40
2018-04-29T00:46:36.588Z,76.40
2018-04-29T00:49:03.184Z,75.80
2018-04-29T00:51:42.043Z,76.90
2018-04-29T00:54:08.634Z,77.50
2018-04-29T00:56:35.175Z,77.40
2018-04-29T00:59:01.799Z,77.30
2018-04-29T01:01:28.282Z,77.00
2018-04-29T01:03:54.862Z,76.90
2018-04-29T01:06:21.369Z,76.70
2018-04-29T01:08:47.919Z,76.20
2018-04-29T01:11:14.463Z,77.50
2018-04-29T01:13:40.967Z,78.70
2018-04-29T01:16:07.503Z,78.40
2018-04-29T01:18:34.047Z,78.00
2018-04-29T01:21:00.571Z,78.20
2018-04-29T01:23:27.107Z,78.10
2018-04-29T01:25:53.647Z,77.70
2018-04-29T01:28:20.150Z,77.90
2018-04-29T01:30:47.060Z,78.60
2018-04-29T01:33:13.598Z,78.60
2018-04-29T01:35:40.140Z,78.90
2018-04-29T01:38:06.687Z,78.50
2018-04-29T01:40:33.231Z,78.70
2018-04-29T01:42:59.742Z,78.30
2018-04-29T01:45:26.644Z,78.90
2018-04-29T01:47:53.183Z,78.90
2018-04-29T01:50:19.752Z,80.30
2018-04-29T01:52:46.304Z,80.10
2018-04-29T01:55:12.838Z,79.40
2018-04-29T01:57:39.339Z,79.00
2018-04-29T02:00:06.267Z,78.90
2018-04-29T02:02:32.817Z,78.90
2018-04-29T02:04:59.329Z,78.60
2018-04-29T02:07:25.902Z,79.20
2018-04-29T02:09:52.426Z,79.30
2018-04-29T02:12:18.943Z,78.90
2018-04-29T02:14:45.474Z,78.80
2018-04-29T02:17:12.376Z,79.10
2018-04-29T02:19:38.882Z,79.10
2018-04-29T02:22:12.860Z,78.90
2018-04-29T02:24:39.434Z,78.90
2018-04-29T02:27:05.947Z,79.60
2018-04-29T02:29:32.491Z,79.90
2018-04-29T02:31:59.019Z,80.10
2018-04-29T02:34:25.535Z,80.40
2018-04-29T02:36:52.453Z,80.30
2018-04-29T02:39:18.984Z,80.30
2018-04-29T02:41:45.499Z,79.70
2018-04-29T02:44:12.036Z,79.10
2018-04-29T02:46:38.954Z,80.30
2018-04-29T02:49:05.485Z,80.30
2018-04-29T02:51:32.055Z,80.20
2018-04-29T02:53:58.587Z,80.50
2018-04-29T02:56:25.107Z,80.10
2018-04-29T02:58:51.650Z,80.40
2018-04-29T03:01:18.187Z,80.00
2018-04-29T03:03:44.697Z,79.90
2018-04-29T03:06:11.596Z,79.80
2018-04-29T03:11:32.320Z,79.60
2018-04-29T03:13:58.855Z,79.40
2018-04-29T03:16:25.725Z,79.10
2018-04-29T03:18:52.333Z,79.00
2018-04-29T03:21:18.872Z,79.40
2018-04-29T03:23:45.375Z,79.40
2018-04-29T03:26:11.915Z,79.10
2018-04-29T03:28:38.468Z,79.10
2018-04-29T03:31:04.963Z,79.30
2018-04-29T03:33:31.491Z,79.90
2018-04-29T03:35:58.007Z,79.60
2018-04-29T03:38:24.515Z,80.10
2018-04-29T03:40:51.046Z,79.60
2018-04-29T03:43:17.599Z,79.60
2018-04-29T03:45:44.117Z,79.70
2018-04-29T03:48:10.665Z,79.80
2018-04-29T03:50:37.243Z,80.30
2018-04-29T03:53:03.752Z,80.00
2018-04-29T03:55:30.327Z,79.70
2018-04-29T03:58:08.963Z,80.10
2018-04-29T04:00:57.454Z,79.70
2018-04-29T04:03:36.538Z,79.80
2018-04-29T04:06:03.171Z,79.80
2018-04-29T04:08:29.723Z,79.60
2018-04-29T04:10:56.243Z,80.00
2018-04-29T04:13:23.177Z,79.90
2018-04-29T04:15:49.756Z,80.00
2018-04-29T04:18:16.263Z,79.30
2018-04-29T04:20:42.808Z,79.00
2018-04-29T04:23:09.352Z,79.50
2018-04-29T04:25:35.892Z,79.70
2018-04-29T04:28:02.436Z,79.50
2018-04-29T04:30:28.968Z,79.70
2018-04-29T04:32:55.474Z,79.40
2018-04-29T04:35:22.396Z,80.00
2018-04-29T04:37:48.932Z,80.00
2018-04-29T04:40:15.488Z,80.10
2018-04-29T04:42:41.994Z,79.80
2018-04-29T04:45:08.539Z,80.10
2018-04-29T04:47:35.063Z,80.60
2018-04-29T04:50:02.021Z,79.70
2018-04-29T04:52:28.967Z,79.20
2018-04-29T04:54:55.850Z,78.30
2018-04-29T04:57:22.402Z,78.30
2018-04-29T04:59:48.975Z,77.90
2018-04-29T05:02:22.479Z,77.50
2018-04-29T05:04:49.010Z,77.70
2018-04-29T05:07:15.577Z,77.00
2018-04-29T05:09:42.084Z,76.70
2018-04-29T05:12:08.984Z,75.60
2018-04-29T05:14:35.503Z,75.60
2018-04-29T05:17:02.047Z,74.70
2018-04-29T05:19:28.600Z,73.90
2018-04-29T05:21:55.095Z,73.40
2018-04-29T05:24:21.680Z,74.10
2018-04-29T05:26:48.232Z,74.00
2018-04-29T05:29:14.755Z,73.50
2018-04-29T05:31:41.331Z,73.40
2018-04-29T05:34:07.879Z,72.80
2018-04-29T05:36:34.384Z,72.20
2018-04-29T05:39:00.948Z,72.20
2018-04-29T05:41:27.864Z,71.40
2018-04-29T05:43:54.379Z,71.30
2018-04-29T05:46:20.924Z,71.00
2018-04-29T05:48:47.485Z,70.30
2018-04-29T05:51:14.018Z,71.30
2018-04-29T05:53:40.571Z,71.00
2018-04-29T05:56:07.111Z,69.10
2018-04-29T05:58:33.645Z,69.00
2018-04-29T06:01:00.211Z,69.30
2018-04-29T06:03:26.884Z,68.60
2018-04-29T06:05:53.417Z,68.40
2018-04-29T06:08:19.956Z,67.90
2018-04-29T06:10:46.519Z,68.40
2018-04-29T06:13:13.024Z,68.00
2018-04-29T06:15:39.981Z,67.30
2018-04-29T06:18:06.947Z,66.30
2018-04-29T06:20:33.507Z,66.30
2018-04-29T06:23:00.039Z,66.80
2018-04-29T06:25:26.588Z,66.70
2018-04-29T06:27:53.095Z,66.00
2018-04-29T06:30:19.643Z,65.70
2018-04-29T06:32:46.174Z,65.20
2018-04-29T06:35:12.687Z,64.20
2018-04-29T06:37:39.219Z,66.10
2018-04-29T06:40:05.800Z,65.10
2018-04-29T06:42:32.345Z,65.60
2018-04-29T06:44:58.883Z,66.90
2018-04-29T06:47:25.428Z,66.90
2018-04-29T06:49:51.933Z,66.00
2018-04-29T06:52:18.912Z,64.50
2018-04-29T06:54:45.467Z,64.50
2018-04-29T06:57:12.019Z,63.50
2018-04-29T06:59:38.584Z,63.60
2018-04-29T07:02:05.131Z,63.90
2018-04-29T07:04:31.635Z,63.10
2018-04-29T07:06:58.559Z,63.40
2018-04-29T07:09:25.108Z,63.60
2018-04-29T07:11:51.620Z,63.60
2018-04-29T07:14:18.177Z,64.40
2018-04-29T07:16:44.719Z,65.30
2018-04-29T07:19:11.228Z,64.40
2018-04-29T07:21:37.772Z,64.50
2018-04-29T07:24:04.687Z,64.70
2018-04-29T07:26:31.223Z,64.70
2018-04-29T07:28:57.792Z,65.70
2018-04-29T07:31:24.343Z,65.80
2018-04-29T07:33:50.852Z,63.90
2018-04-29T07:36:17.436Z,63.90
2018-04-29T07:38:43.981Z,62.20
2018-04-29T07:41:10.519Z,62.70
2018-04-29T07:43:37.059Z,62.00
2018-04-29T07:46:03.605Z,62.80
2018-04-29T07:48:30.116Z,62.10
2018-04-29T07:50:56.667Z,63.10
2018-04-29T07:53:23.243Z,63.20
2018-04-29T07:55:49.747Z,63.10
2018-04-29T07:58:16.296Z,61.50
2018-04-29T08:00:42.920Z,63.20
2018-04-29T08:03:09.794Z,61.90
2018-04-29T08:05:36.344Z,61.90
2018-04-29T08:08:02.955Z,62.00
2018-04-29T08:10:29.879Z,60.50
2018-04-29T08:12:56.443Z,60.50
2018-04-29T08:15:23.031Z,61.20
2018-04-29T08:17:49.571Z,59.90
2018-04-29T08:20:16.127Z,60.40
2018-04-29T08:22:42.793Z,60.70
2018-04-29T08:25:09.273Z,59.90
2018-04-29T08:27:35.835Z,59.90
2018-04-29T08:30:02.955Z,60.40
2018-04-29T08:32:29.499Z,60.40
2018-04-29T08:34:56.066Z,59.80
2018-04-29T08:37:22.646Z,58.80
2018-04-29T08:39:49.536Z,60.90
2018-04-29T08:42:16.127Z,60.90
2018-04-29T08:44:42.696Z,61.40
2018-04-29T08:47:09.633Z,61.90
2018-04-29T08:49:36.210Z,61.90
2018-04-29T08:52:03.293Z,60.80
2018-04-29T08:54:29.864Z,60.80
2018-04-29T08:56:56.539Z,59.60
2018-04-29T08:59:22.927Z,60.90
2018-04-29T09:01:49.614Z,61.20
2018-04-29T09:04:15.975Z,61.20
2018-04-29T09:06:42.346Z,60.20
2018-04-29T09:09:09.042Z,60.10
2018-04-29T09:11:35.390Z,60.10
2018-04-29T09:14:01.778Z,58.80
2018-04-29T09:16:28.506Z,58.30
2018-04-29T09:18:54.886Z,58.30
2018-04-29T09:21:21.627Z,57.80
2018-04-29T09:23:48.330Z,58.30
2018-04-29T09:26:14.694Z,58.30
2018-04-29T09:28:41.042Z,56.60
2018-04-29T09:31:07.362Z,55.70
2018-04-29T09:33:33.713Z,56.80
2018-04-29T09:36:00.089Z,56.20
2018-04-29T09:38:26.414Z,55.40
2018-04-29T09:40:52.782Z,56.20
2018-04-29T09:43:19.554Z,55.50
2018-04-29T09:45:46.226Z,56.60
2018-04-29T09:48:12.584Z,56.60
2018-04-29T09:50:38.946Z,57.30
2018-04-29T09:53:05.302Z,56.70
2018-04-29T09:55:31.658Z,56.60
2018-04-29T09:57:58.382Z,56.10
2018-04-29T10:00:26.686Z,56.10
2018-04-29T10:02:53.156Z,57.00
2018-04-29T10:05:20.277Z,56.40
2018-04-29T10:07:46.765Z,55.10
2018-04-29T10:10:13.472Z,55.80
2018-04-29T10:12:40.295Z,54.90
2018-04-29T10:15:07.105Z,54.60
2018-04-29T10:17:34.912Z,54.90
2018-04-29T10:20:01.620Z,55.50
2018-04-29T10:22:28.053Z,55.10
2018-04-29T10:24:54.506Z,55.30
2018-04-29T10:27:21.077Z,55.70
2018-04-29T10:29:47.584Z,54.70
2018-04-29T10:32:14.167Z,55.80
2018-04-29T10:34:40.950Z,55.10
2018-04-29T10:37:07.322Z,55.10
2018-04-29T10:39:33.784Z,55.40
2018-04-29T10:42:00.516Z,56.20
2018-04-29T10:44:27.180Z,55.80
2018-04-29T10:46:53.669Z,56.10
2018-04-29T10:49:20.158Z,53.20
2018-04-29T10:51:46.462Z,54.40
2018-04-29T10:54:12.875Z,53.10
2018-04-29T10:56:39.364Z,54.30
2018-04-29T10:59:05.698Z,53.70
2018-04-29T11:01:39.142Z,54.40
2018-04-29T11:04:05.482Z,54.20
2018-04-29T11:06:31.843Z,53.10
2018-04-29T11:08:58.174Z,53.80
2018-04-29T11:11:24.518Z,53.80
2018-04-29T11:13:50.885Z,54.90
2018-04-29T11:16:17.221Z,54.10
2018-04-29T11:18:43.561Z,53.80
2018-04-29T11:21:09.982Z,54.10
2018-04-29T11:23:36.323Z,53.70
2018-04-29T11:26:02.666Z,54.10
2018-04-29T11:28:29.017Z,52.50
2018-04-29T11:30:55.374Z,53.30
2018-04-29T11:33:21.726Z,53.00
2018-04-29T11:35:48.030Z,53.30
2018-04-29T11:38:14.589Z,52.60
2018-04-29T11:40:41.176Z,52.90
2018-04-29T11:43:07.656Z,52.70
2018-04-29T11:45:34.189Z,53.40
2018-04-29T11:48:00.724Z,52.90
2018-04-29T11:50:27.591Z,53.00
2018-04-29T11:52:54.129Z,53.00
2018-04-29T11:55:20.684Z,53.90
2018-04-29T11:57:47.199Z,54.90
2018-04-29T12:00:13.780Z,52.20
2018-04-29T12:02:40.473Z,50.20
2018-04-29T12:05:06.843Z,51.20
2018-04-29T12:07:33.749Z,49.40
2018-04-29T12:10:00.269Z,49.40
2018-04-29T12:12:26.773Z,49.40
2018-04-29T12:14:53.308Z,48.00
2018-04-29T12:17:19.872Z,46.40
2018-04-29T12:19:46.382Z,47.90
2018-04-29T12:22:12.903Z,48.40
2018-04-29T12:24:39.500Z,47.80
2018-04-29T12:27:05.989Z,46.20
2018-04-29T12:29:32.888Z,45.70
2018-04-29T12:31:59.424Z,45.70
2018-04-29T12:34:25.946Z,46.20
2018-04-29T12:36:52.502Z,46.50
2018-04-29T12:39:19.031Z,48.50
2018-04-29T12:41:45.894Z,48.50
2018-04-29T12:44:12.440Z,48.50
2018-04-29T12:46:39.034Z,49.00
2018-04-29T12:49:05.512Z,49.30
2018-04-29T12:51:32.412Z,47.50
2018-04-29T12:53:58.947Z,47.50
2018-04-29T12:56:25.448Z,47.80
2018-04-29T12:58:52.008Z,47.00
2018-04-29T13:01:18.939Z,45.90
2018-04-29T13:03:45.459Z,45.90
2018-04-29T13:06:11.986Z,46.90
2018-04-29T13:08:38.512Z,47.70
2018-04-29T13:11:05.399Z,48.10
2018-04-29T13:13:31.939Z,48.10
2018-04-29T13:15:58.493Z,47.20
2018-04-29T13:18:25.003Z,47.40
2018-04-29T13:20:51.947Z,46.70
2018-04-29T13:23:18.475Z,46.70
2018-04-29T13:25:44.984Z,46.00
2018-04-29T13:28:11.515Z,45.90
2018-04-29T13:30:38.047Z,48.00
2018-04-29T13:33:04.915Z,46.40
2018-04-29T13:35:31.448Z,46.40
2018-04-29T13:37:58.367Z,46.00
2018-04-29T13:40:24.868Z,46.00
2018-04-29T13:42:51.407Z,46.20
2018-04-29T13:45:17.956Z,45.80
2018-04-29T13:47:44.474Z,46.50
2018-04-29T13:50:11.012Z,46.00
2018-04-29T13:52:37.544Z,46.40
2018-04-29T13:55:04.055Z,46.00
2018-04-29T13:57:30.595Z,46.40
2018-04-29T13:59:57.134Z,47.30
2018-04-29T14:02:24.031Z,45.90
2018-04-29T14:04:50.632Z,45.90
2018-04-29T14:07:17.559Z,46.00
2018-04-29T14:09:44.075Z,46.00
2018-04-29T14:12:10.602Z,45.70
2018-04-29T14:14:37.145Z,46.10
2018-04-29T14:17:03.651Z,47.30
2018-04-29T14:19:30.212Z,47.00
2018-04-29T14:21:57.119Z,47.20
2018-04-29T14:24:23.643Z,47.20
2018-04-29T14:26:50.177Z,46.30
2018-04-29T14:29:16.715Z,47.30
2018-04-29T14:31:43.579Z,47.60
2018-04-29T14:34:10.124Z,47.60
2018-04-29T14:36:36.706Z,48.60
2018-04-29T14:39:03.339Z,47.50
2018-04-29T14:41:29.898Z,46.40
2018-04-29T14:43:56.435Z,45.60
2018-04-29T14:46:22.935Z,46.70
2018-04-29T14:48:49.470Z,46.20
2018-04-29T14:51:15.962Z,47.20
2018-04-29T14:53:42.508Z,46.50
2018-04-29T14:56:09.067Z,46.60
2018-04-29T14:58:35.587Z,47.00
2018-04-29T15:01:02.541Z,47.10
2018-04-29T15:03:29.427Z,45.70
2018-04-29T15:05:55.971Z,45.70
2018-04-29T15:08:22.539Z,45.80
2018-04-29T15:10:49.037Z,46.20
2018-04-29T15:13:15.952Z,46.50
2018-04-29T15:15:42.459Z,46.50
2018-04-29T15:18:21.255Z,47.30
2018-04-29T15:20:47.841Z,46.00
2018-04-29T15:23:14.341Z,45.70
2018-04-29T15:25:41.001Z,45.20
2018-04-29T15:28:07.443Z,47.10
2018-04-29T15:30:33.992Z,46.50
2018-04-29T15:33:00.519Z,46.30
2018-04-29T15:35:27.455Z,45.90
2018-04-29T15:37:54.055Z,46.10
2018-04-29T15:40:20.560Z,45.80
2018-04-29T15:42:47.089Z,46.60
2018-04-29T15:45:13.675Z,46.60
2018-04-29T15:47:40.191Z,46.40
2018-04-29T15:50:06.740Z,46.10
2018-04-29T15:52:40.335Z,47.70
2018-04-29T15:55:06.867Z,48.20
2018-04-29T15:57:33.398Z,49.00
2018-04-29T16:00:00.267Z,49.10
2018-04-29T16:02:26.832Z,49.10
2018-04-29T16:04:53.335Z,49.30
2018-04-29T16:07:20.258Z,50.50
2018-04-29T16:09:46.787Z,50.50
2018-04-29T16:12:13.287Z,49.90
2018-04-29T16:14:40.199Z,45.90
2018-04-29T16:17:06.706Z,45.90
2018-04-29T16:19:33.268Z,43.40
2018-04-29T16:21:59.803Z,42.00
2018-04-29T16:24:26.306Z,42.20
2018-04-29T16:26:52.843Z,42.20
2018-04-29T16:29:19.352Z,42.10
2018-04-29T16:31:45.887Z,42.00
2018-04-29T16:34:12.479Z,42.50
2018-04-29T16:36:38.988Z,42.30
2018-04-29T16:39:05.555Z,42.00
2018-04-29T16:41:32.059Z,42.60
2018-04-29T16:43:58.958Z,42.30
2018-04-29T16:46:25.500Z,42.30
2018-04-29T16:48:52.003Z,42.40
2018-04-29T16:51:18.923Z,42.60
2018-04-29T16:53:45.428Z,42.60
2018-04-29T16:56:11.968Z,42.70
2018-04-29T16:58:38.548Z,42.50
2018-04-29T17:01:05.088Z,42.40
2018-04-29T17:03:31.618Z,42.50
2018-04-29T17:05:58.127Z,42.50
2018-04-29T17:08:24.691Z,42.70
2018-04-29T17:10:51.595Z,42.90
2018-04-29T17:13:18.096Z,42.90
2018-04-29T17:15:45.016Z,42.70
2018-04-29T17:18:11.558Z,42.70
2018-04-29T17:20:38.065Z,42.70
2018-04-29T17:23:04.620Z,42.50
2018-04-29T17:25:31.138Z,42.30
2018-04-29T17:27:58.055Z,42.90
2018-04-29T17:30:24.587Z,42.90
2018-04-29T17:32:51.131Z,42.60
2018-04-29T17:35:17.672Z,42.60
2018-04-29T17:37:44.261Z,42.50
2018-04-29T17:40:11.203Z,43.00
2018-04-29T17:42:37.708Z,43.00
2018-04-29T17:45:04.264Z,43.20
2018-04-29T17:47:30.820Z,43.20
2018-04-29T17:49:57.371Z,43.30
2018-04-29T17:52:30.969Z,43.50
2018-04-29T17:54:57.502Z,43.70
2018-04-29T17:57:24.051Z,43.60
2018-04-29T17:59:50.624Z,44.00
2018-04-29T18:02:17.151Z,44.10
2018-04-29T18:04:43.755Z,44.20
2018-04-29T18:07:10.331Z,44.60
2018-04-29T18:09:36.835Z,44.70
2018-04-29T18:12:03.451Z,44.70
2018-04-29T18:14:29.949Z,45.00
2018-04-29T18:16:56.483Z,45.10
2018-04-29T18:19:22.999Z,45.40
2018-04-29T18:21:49.531Z,45.30
2018-04-29T18:24:16.063Z,45.30
2018-04-29T18:26:42.570Z,45.50
2018-04-29T18:29:09.103Z,45.50
2018-04-29T18:31:35.616Z,45.40
2018-04-29T18:34:02.143Z,45.70
2018-04-29T18:36:29.052Z,45.90
2018-04-29T18:38:55.606Z,45.90
2018-04-29T18:41:22.218Z,45.90
2018-04-29T18:43:48.759Z,46.20
2018-04-29T18:46:15.287Z,46.20
2018-04-29T18:48:42.213Z,46.40
2018-04-29T18:51:09.278Z,46.70
2018-04-29T18:53:35.712Z,46.70
2018-04-29T18:56:02.235Z,46.90
2018-04-29T18:58:28.787Z,47.10
2018-04-29T19:00:55.335Z,47.20
2018-04-29T19:03:21.876Z,47.30
2018-04-29T19:05:48.534Z,47.60
2018-04-29T19:08:15.035Z,48.00
2018-04-29T19:10:41.601Z,48.20
2018-04-29T19:13:08.187Z,48.50
2018-04-29T19:15:34.731Z,48.80
2018-04-29T19:18:02.286Z,48.70
2018-04-29T19:20:28.796Z,49.10
2018-04-29T19:22:55.403Z,49.20
2018-04-29T19:25:21.952Z,49.20
2018-04-29T19:27:48.519Z,49.30
2018-04-29T19:30:15.455Z,49.80
2018-04-29T19:32:42.378Z,49.90
2018-04-29T19:35:08.929Z,50.00
2018-04-29T19:37:35.480Z,50.00
2018-04-29T19:40:01.999Z,50.10
2018-04-29T19:42:28.674Z,50.30
2018-04-29T19:44:55.238Z,50.30
2018-04-29T19:47:21.779Z,50.30
2018-04-29T19:49:48.360Z,50.50
2018-04-29T19:52:15.300Z,50.10
2018-04-29T19:54:41.847Z,50.10
2018-04-29T19:57:08.466Z,50.30
2018-04-29T19:59:35.012Z,50.40
2018-04-29T20:02:01.717Z,50.40
2018-04-29T20:04:28.678Z,50.90
2018-04-29T20:06:55.248Z,50.90
2018-04-29T20:09:21.759Z,51.10
2018-04-29T20:11:48.694Z,51.90
2018-04-29T20:14:15.211Z,51.90
2018-04-29T20:16:41.759Z,52.20
2018-04-29T20:19:08.280Z,52.30
2018-04-29T20:21:34.835Z,52.50
2018-04-29T20:24:01.341Z,53.00
2018-04-29T20:26:27.899Z,53.20
2018-04-29T20:28:54.828Z,53.30
2018-04-29T20:31:21.331Z,53.30
2018-04-29T20:33:47.898Z,53.60
2018-04-29T20:36:14.416Z,53.90
2018-04-29T20:38:40.967Z,54.40
2018-04-29T20:41:07.555Z,54.70
2018-04-29T20:43:34.075Z,54.70
2018-04-29T20:46:00.632Z,54.00
2018-04-29T20:48:27.222Z,53.60
2018-04-29T20:50:54.195Z,53.80
2018-04-29T20:53:21.263Z,53.50
2018-04-29T20:55:48.025Z,53.70
2018-04-29T20:58:14.834Z,53.70
2018-04-29T21:00:41.510Z,53.80
2018-04-29T21:03:10.125Z,54.10
2018-04-29T21:05:37.253Z,54.10
2018-04-29T21:08:04.040Z,54.80
2018-04-29T21:10:30.636Z,54.90
2018-04-29T21:12:57.155Z,55.00
2018-04-29T21:15:23.739Z,55.30
2018-04-29T21:17:50.279Z,55.60
2018-04-29T21:20:16.792Z,55.90
2018-04-29T21:22:43.340Z,56.10
2018-04-29T21:25:09.857Z,55.90
2018-04-29T21:27:36.597Z,55.90
2018-04-29T21:30:03.578Z,55.60
2018-04-29T21:32:30.123Z,55.50
2018-04-29T21:34:56.676Z,55.40
2018-04-29T21:37:23.188Z,55.10
2018-04-29T21:39:50.099Z,54.80
2018-04-29T21:42:16.643Z,54.80
2018-04-29T21:44:43.154Z,55.10
2018-04-29T21:47:09.688Z,54.90
2018-04-29T21:49:36.576Z,54.80
2018-04-29T21:52:03.168Z,54.80
2018-04-29T21:54:29.711Z,55.20
2018-04-29T21:56:56.227Z,55.30
2018-04-29T21:59:22.759Z,55.50
2018-04-29T22:01:49.340Z,55.70
2018-04-29T22:04:16.001Z,56.10
2018-04-29T22:06:42.503Z,56.20
2018-04-29T22:09:09.022Z,56.20
2018-04-29T22:11:35.939Z,56.30
2018-04-29T22:14:02.466Z,56.30
2018-04-29T22:16:29.009Z,55.80
2018-04-29T22:18:55.556Z,56.10
2018-04-29T22:21:22.076Z,55.80
2018-04-29T22:23:48.621Z,56.00
2018-04-29T22:26:15.148Z,55.80
2018-04-29T22:28:41.695Z,55.80
2018-04-29T22:31:08.643Z,56.10
2018-04-29T22:33:35.155Z,56.10
2018-04-29T22:36:02.140Z,56.50
2018-04-29T22:38:28.667Z,56.50
2018-04-29T22:40:55.228Z,56.50
2018-04-29T22:43:21.782Z,56.40
2018-04-29T22:45:48.305Z,56.50
2018-04-29T22:48:14.848Z,56.80
2018-04-29T22:50:41.386Z,56.70
2018-04-29T22:53:08.002Z,56.80
2018-04-29T22:55:34.924Z,56.80
2018-04-29T22:58:01.467Z,56.80
2018-04-29T23:00:35.016Z,56.70
2018-04-29T23:03:01.523Z,57.00
2018-04-29T23:05:28.104Z,57.20
2018-04-29T23:07:55.020Z,57.30
2018-04-29T23:10:21.534Z,57.30
2018-04-29T23:12:48.077Z,56.60
2018-04-29T23:15:14.598Z,56.60
2018-04-29T23:17:41.515Z,56.00
2018-04-29T23:20:08.068Z,56.00
2018-04-29T23:22:34.598Z,56.00
2018-04-29T23:25:01.143Z,56.20
2018-04-29T23:27:27.671Z,56.50
2018-04-29T23:29:54.211Z,56.80
2018-04-29T23:32:20.750Z,56.80
2018-04-29T23:34:47.264Z,57.30
2018-04-29T23:37:13.812Z,57.70
2018-04-29T23:39:40.320Z,57.90
2018-04-29T23:42:06.871Z,57.90
2018-04-29T23:44:33.402Z,57.60
2018-04-29T23:46:59.903Z,57.60
2018-04-29T23:49:26.819Z,57.20
2018-04-29T23:51:53.331Z,57.20
2018-04-29T23:54:19.947Z,57.10
2018-04-29T23:56:46.460Z,57.30
2018-04-29T23:59:12.988Z,56.50
